Time;durP1;ratioP1;P1;durP2;ratioP2;P2;SDS_P1;SDS_P2;PMS_P1;PMS_P2;Temp;Humidity;BMP_temperature;BMP_pressure;BME280_temperature;BME280_humidity;BME280_pressure;Samples;Min_cycle;Max_cycle;Signal;HPM_P1;HPM_P2
2023/06/14 00:00:44;;;;;;;;;;;;;;;19.17;41.56;101422.13;5099191;28;20282;-48
2023/06/14 00:03:11;;;;;;;;;;;;;;;19.12;41.32;101425.59;5109782;28;19920;-46
2023/06/14 00:05:42;;;;;;;;;;;;;;;19.07;40.98;101419.47;5109496;28;19912;-48
2023/06/14 00:08:08;;;;;;;;;;;;;;;19.01;41.48;101428.16;5108576;28;20390;-46
2023/06/14 00:10:35;;;;;;;;;;;;;;;18.99;40.77;101416.88;5109528;28;19989;-49
2023/06/14 00:13:01;;;;;;;;;;;;;;;18.97;41.13;101429.00;5110100;28;19919;-48
2023/06/14 00:15:26;;;;;;;;;;;;;;;18.96;40.96;101422.06;5109314;28;19919;-56
2023/06/14 00:17:51;;;;;;;;;;;;;;;18.91;41.25;101419.44;5108333;28;19915;-56
2023/06/14 00:20:17;;;;;;;;;;;;;;;18.87;41.32;101422.91;5109296;28;19926;-57
2023/06/14 00:22:42;;;;;;;;;;;;;;;18.83;41.08;101422.91;5105893;28;19938;-57
2023/06/14 00:25:07;;;;;;;;;;;;;;;18.78;41.22;101427.22;5107559;28;19974;-57
2023/06/14 00:27:33;;;;;;;;;;;;;;;18.70;41.53;101424.59;5106965;28;19916;-57
2023/06/14 00:29:58;;;;;;;;;;;;;;;18.63;41.33;101426.28;5104224;28;19927;-57
2023/06/14 00:32:25;;;;;;;;;;;;;;;18.61;41.02;101432.31;5103581;28;19920;-57
2023/06/14 00:34:50;;;;;;;;;;;;;;;18.55;41.00;101433.16;5099421;28;19931;-57
2023/06/14 00:37:16;;;;;;;;;;;;;;;18.50;41.83;101434.88;5103089;28;20328;-57
2023/06/14 00:39:41;;;;;;;;;;;;;;;18.46;41.35;101430.53;5098332;28;19948;-57
2023/06/14 00:42:07;;;;;;;;;;;;;;;18.42;41.42;101428.78;5103703;28;19916;-57
2023/06/14 00:44:32;;;;;;;;;;;;;;;18.40;41.05;101425.31;5079224;28;20006;-57
2023/06/14 00:46:57;;;;;;;;;;;;;;;18.37;41.92;101427.88;5107916;28;19920;-56
2023/06/14 00:49:23;;;;;;;;;;;;;;;18.36;41.03;101433.94;5107262;28;19919;-58
2023/06/14 00:51:48;;;;;;;;;;;;;;;18.33;41.36;101433.94;5103885;28;19920;-57
2023/06/14 00:54:14;;;;;;;;;;;;;;;18.34;40.66;101433.09;5105934;28;20275;-57
2023/06/14 00:56:40;;;;;;;;;;;;;;;18.31;40.90;101433.91;5105442;28;19923;-57
2023/06/14 00:59:05;;;;;;;;;;;;;;;18.27;41.32;101429.59;5110061;28;19919;-57
2023/06/14 01:01:34;;;;;;;;;;;;;;;18.27;41.06;101432.19;5105799;28;19912;-57
2023/06/14 01:04:01;;;;;;;;;;;;;;;18.23;41.14;101433.00;5109478;28;20357;-57
2023/06/14 01:06:45;;;;;;;;;;;;;;;18.20;41.14;101431.28;5107129;28;19955;-57
2023/06/14 01:09:20;;;;;;;;;;;;;;;18.18;41.30;101432.97;5109922;28;19951;-57
2023/06/14 01:11:49;;;;;;;;;;;;;;;18.16;41.56;101433.84;5112126;28;19916;-56
2023/06/14 01:14:16;;;;;;;;;;;;;;;18.15;41.07;101434.72;5109892;28;19920;-57
2023/06/14 01:16:41;;;;;;;;;;;;;;;18.12;41.48;101439.88;5106473;28;20316;-58
2023/06/14 01:19:12;;;;;;;;;;;;;;;18.10;41.20;101434.69;5086577;28;19964;-57
2023/06/14 01:21:41;;;;;;;;;;;;;;;18.07;41.74;101437.25;5105181;28;19920;-57
2023/06/14 01:24:07;;;;;;;;;;;;;;;18.05;41.34;101441.59;5107938;28;19919;-58
2023/06/14 01:26:32;;;;;;;;;;;;;;;18.04;41.51;101438.97;5107795;28;20271;-56
2023/06/14 01:28:58;;;;;;;;;;;;;;;18.01;41.30;101444.16;5109952;28;20297;-58
2023/06/14 01:31:24;;;;;;;;;;;;;;;17.98;41.28;101439.81;5106098;28;19927;-57
2023/06/14 01:33:50;;;;;;;;;;;;;;;17.99;41.97;101432.88;5111044;28;19968;-56
2023/06/14 01:36:16;;;;;;;;;;;;;;;17.92;41.53;101440.63;5107537;28;19927;-57
2023/06/14 01:38:42;;;;;;;;;;;;;;;17.91;41.36;101436.28;5094944;28;19912;-56
2023/06/14 01:41:08;;;;;;;;;;;;;;;17.85;42.08;101440.59;5093279;28;20370;-57
2023/06/14 01:43:34;;;;;;;;;;;;;;;17.82;41.55;101443.16;5111226;28;19916;-57
2023/06/14 01:46:00;;;;;;;;;;;;;;;17.78;42.24;101441.41;5112032;28;19912;-56
2023/06/14 01:48:26;;;;;;;;;;;;;;;17.76;42.34;101445.69;5111090;28;20004;-58
2023/06/14 01:50:52;;;;;;;;;;;;;;;17.71;41.92;101440.41;5110489;28;19930;-57
2023/06/14 01:53:18;;;;;;;;;;;;;;;17.69;42.10;101439.56;5107191;28;19912;-57
2023/06/14 01:55:43;;;;;;;;;;;;;;;17.65;42.49;101435.16;5109458;28;19924;-57
2023/06/14 01:58:11;;;;;;;;;;;;;;;17.60;42.34;101442.97;5106414;28;20298;-58
2023/06/14 02:00:37;;;;;;;;;;;;;;;17.55;42.99;101447.25;5107217;28;20319;-58
2023/06/14 02:03:04;;;;;;;;;;;;;;;17.53;42.27;101448.94;5109246;28;20455;-57
2023/06/14 02:05:30;;;;;;;;;;;;;;;17.49;42.21;101443.72;5103829;28;19941;-57
2023/06/14 02:07:55;;;;;;;;;;;;;;;17.46;42.87;101441.06;5105932;28;19919;-57
2023/06/14 02:10:20;;;;;;;;;;;;;;;17.45;42.72;101448.00;5098027;28;20530;-58
2023/06/14 02:12:46;;;;;;;;;;;;;;;17.40;42.06;101447.09;5111138;28;20431;-48
2023/06/14 02:15:18;;;;;;;;;;;;;;;17.33;42.39;101443.56;5103925;28;19920;-46
2023/06/14 02:17:47;;;;;;;;;;;;;;;17.29;42.91;101440.91;5101331;28;20346;-45
2023/06/14 02:20:12;;;;;;;;;;;;;;;17.29;43.23;101433.13;5103998;28;19926;-46
2023/06/14 02:22:37;;;;;;;;;;;;;;;17.20;43.62;101435.66;5075563;28;20298;-49
2023/06/14 02:25:03;;;;;;;;;;;;;;;17.18;43.39;101432.16;5108291;28;19927;-46
2023/06/14 02:27:28;;;;;;;;;;;;;;;17.13;42.98;101440.78;5107496;28;20401;-48
2023/06/14 02:29:53;;;;;;;;;;;;;;;17.07;43.51;101440.72;5109025;28;19920;-44
2023/06/14 02:32:19;;;;;;;;;;;;;;;17.05;44.00;101441.56;5108704;28;20385;-46
2023/06/14 02:34:44;;;;;;;;;;;;;;;17.00;43.57;101440.63;5089160;28;19916;-45
2023/06/14 02:37:10;;;;;;;;;;;;;;;16.98;43.17;101444.94;5106919;28;19920;-46
2023/06/14 02:39:36;;;;;;;;;;;;;;;16.92;44.13;101445.72;5103676;28;20297;-49
2023/06/14 02:42:01;;;;;;;;;;;;;;;16.87;44.12;101453.50;5106013;28;19994;-47
2023/06/14 02:44:27;;;;;;;;;;;;;;;16.85;44.29;101455.19;5101170;28;19912;-48
2023/06/14 02:46:55;;;;;;;;;;;;;;;16.82;44.57;101452.56;5102051;28;19916;-46
2023/06/14 02:49:21;;;;;;;;;;;;;;;16.78;44.20;101445.56;5099926;28;19916;-46
2023/06/14 02:51:46;;;;;;;;;;;;;;;16.76;43.71;101449.03;5107050;28;19920;-46
2023/06/14 02:54:12;;;;;;;;;;;;;;;16.74;44.01;101456.78;5099129;28;19924;-45
2023/06/14 02:56:37;;;;;;;;;;;;;;;16.69;44.55;101455.84;5102098;28;20022;-48
2023/06/14 02:59:02;;;;;;;;;;;;;;;16.66;44.60;101460.09;5114666;27;19915;-48
2023/06/14 03:01:33;;;;;;;;;;;;;;;16.61;45.02;101450.53;5110563;28;20336;-46
2023/06/14 03:03:59;;;;;;;;;;;;;;;16.57;44.59;101453.94;5109492;28;19916;-44
2023/06/14 03:06:24;;;;;;;;;;;;;;;16.55;45.41;101457.38;5110266;28;19938;-47
2023/06/14 03:08:50;;;;;;;;;;;;;;;16.51;45.66;101453.00;5110310;28;20401;-49
2023/06/14 03:11:16;;;;;;;;;;;;;;;16.49;44.54;101460.75;5109631;28;20373;-45
2023/06/14 03:13:43;;;;;;;;;;;;;;;16.44;45.66;101462.44;5109984;28;19965;-45
2023/06/14 03:16:08;;;;;;;;;;;;;;;16.42;45.84;101469.31;5109968;28;19916;-45
2023/06/14 03:18:35;;;;;;;;;;;;;;;16.36;46.03;101464.91;5104689;28;19926;-47
2023/06/14 03:21:03;;;;;;;;;;;;;;;16.35;45.96;101473.53;5099387;28;19923;-44
2023/06/14 03:23:28;;;;;;;;;;;;;;;16.32;46.17;101470.06;5100367;28;19973;-46
2023/06/14 03:25:54;;;;;;;;;;;;;;;16.31;46.47;101478.66;5104976;28;19955;-46
2023/06/14 03:28:19;;;;;;;;;;;;;;;16.27;46.02;101474.31;5103258;28;19919;-45
2023/06/14 03:30:45;;;;;;;;;;;;;;;16.25;45.97;101483.75;5097068;28;19928;-44
2023/06/14 03:33:10;;;;;;;;;;;;;;;16.22;46.58;101478.53;5110656;27;20001;-48
2023/06/14 03:35:35;;;;;;;;;;;;;;;16.22;46.77;101476.81;5109321;28;19920;-45
2023/06/14 03:38:02;;;;;;;;;;;;;;;16.21;45.84;101479.41;5092502;28;19916;-45
2023/06/14 03:40:27;;;;;;;;;;;;;;;16.20;46.39;101480.22;5109571;28;19965;-45
2023/06/14 03:42:53;;;;;;;;;;;;;;;16.20;46.14;101486.31;5109166;28;19927;-47
2023/06/14 03:45:19;;;;;;;;;;;;;;;16.19;47.15;101481.09;5109259;28;19947;-45
2023/06/14 03:47:44;;;;;;;;;;;;;;;16.18;46.76;101485.41;5090769;28;19963;-46
2023/06/14 03:50:10;;;;;;;;;;;;;;;16.18;45.95;101479.34;5109416;28;20013;-48
2023/06/14 03:52:35;;;;;;;;;;;;;;;16.17;46.76;101488.84;5109523;28;19916;-47
2023/06/14 03:55:00;;;;;;;;;;;;;;;16.14;47.14;101483.63;5105415;28;20353;-46
2023/06/14 03:57:26;;;;;;;;;;;;;;;16.14;47.30;101491.41;5108486;28;20027;-45
2023/06/14 03:59:51;;;;;;;;;;;;;;;16.15;46.55;101492.28;5110019;28;19979;-47
2023/06/14 04:02:17;;;;;;;;;;;;;;;16.15;47.14;101492.28;5109861;28;20366;-47
2023/06/14 04:04:45;;;;;;;;;;;;;;;16.17;47.29;101490.56;5106222;28;20366;-46
2023/06/14 04:07:13;;;;;;;;;;;;;;;16.17;47.25;101498.34;5103550;28;20362;-46
2023/06/14 04:09:38;;;;;;;;;;;;;;;16.18;47.07;101495.78;5087549;28;19911;-47
2023/06/14 04:12:05;;;;;;;;;;;;;;;16.21;47.12;101500.16;5104939;28;19971;-48
2023/06/14 04:14:30;;;;;;;;;;;;;;;16.21;46.75;101502.75;5107347;28;19912;-48
2023/06/14 04:16:56;;;;;;;;;;;;;;;16.23;46.97;101506.22;5105819;28;19911;-45
2023/06/14 04:19:21;;;;;;;;;;;;;;;16.25;47.92;101507.13;5107684;28;19915;-47
2023/06/14 04:21:46;;;;;;;;;;;;;;;16.57;47.43;101505.88;5104791;28;19939;-47
2023/06/14 04:24:13;;;;;;;;;;;;;;;17.24;46.46;101500.66;5098245;28;20385;-47
2023/06/14 04:26:44;;;;;;;;;;;;;;;17.91;45.11;101500.47;5099941;28;20131;-46
2023/06/14 04:29:09;;;;;;;;;;;;;;;18.54;44.15;101501.75;5099301;28;19924;-49
2023/06/14 04:31:37;;;;;;;;;;;;;;;19.14;43.56;101500.31;5105744;28;19924;-45
2023/06/14 04:34:05;;;;;;;;;;;;;;;19.69;42.49;101503.03;5113642;28;19915;-46
2023/06/14 04:36:32;;;;;;;;;;;;;;;20.13;41.67;101503.91;5111292;28;19916;-47
2023/06/14 04:38:58;;;;;;;;;;;;;;;20.42;40.89;101512.56;5111390;28;19919;-46
2023/06/14 04:41:30;;;;;;;;;;;;;;;20.64;40.74;101509.94;5110454;28;19920;-48
2023/06/14 04:43:57;;;;;;;;;;;;;;;20.87;40.44;101511.59;5109161;28;19919;-46
2023/06/14 04:46:22;;;;;;;;;;;;;;;21.05;39.75;101515.88;5105496;28;19958;-49
2023/06/14 04:48:47;;;;;;;;;;;;;;;21.29;39.54;101509.66;5106532;28;19947;-47
2023/06/14 04:51:13;;;;;;;;;;;;;;;21.55;39.38;101517.34;5111022;28;19923;-46
2023/06/14 04:53:38;;;;;;;;;;;;;;;21.78;39.43;101513.66;5106841;28;20366;-46
2023/06/14 04:56:03;;;;;;;;;;;;;;;21.99;38.30;101507.41;5106383;28;19958;-46
2023/06/14 04:58:29;;;;;;;;;;;;;;;22.10;38.49;101508.22;5106641;28;19919;-45
2023/06/14 05:00:55;;;;;;;;;;;;;;;22.27;38.61;101523.78;5102807;28;20378;-46
2023/06/14 05:03:21;;;;;;;;;;;;;;;22.32;38.96;101516.72;5098456;28;20380;-48
2023/06/14 05:05:46;;;;;;;;;;;;;;;22.30;38.09;101516.75;5112251;28;19951;-50
2023/06/14 05:08:11;;;;;;;;;;;;;;;22.31;37.90;101514.97;5111420;28;19971;-48
2023/06/14 05:10:37;;;;;;;;;;;;;;;22.38;38.31;101521.91;5111873;28;20370;-47
2023/06/14 05:13:02;;;;;;;;;;;;;;;22.39;38.24;101516.66;5094917;28;19922;-47
2023/06/14 05:15:28;;;;;;;;;;;;;;;22.49;38.71;101527.91;5112685;28;19958;-45
2023/06/14 05:17:55;;;;;;;;;;;;;;;22.56;38.33;101526.94;5112422;28;19919;-44
2023/06/14 05:20:24;;;;;;;;;;;;;;;22.68;38.10;101531.19;5112262;28;19915;-46
2023/06/14 05:22:51;;;;;;;;;;;;;;;22.62;38.58;101526.00;5111947;28;19911;-45
2023/06/14 05:25:17;;;;;;;;;;;;;;;22.34;38.48;101526.31;5111358;28;20000;-45
2023/06/14 05:27:42;;;;;;;;;;;;;;;22.12;39.46;101532.63;5104771;28;19991;-46
2023/06/14 05:30:08;;;;;;;;;;;;;;;21.90;39.27;101538.03;5106593;28;19920;-47
2023/06/14 05:32:33;;;;;;;;;;;;;;;21.99;39.51;101533.59;5107821;28;19916;-46
2023/06/14 05:34:59;;;;;;;;;;;;;;;21.97;39.25;101538.00;5112243;28;20337;-46
2023/06/14 05:37:24;;;;;;;;;;;;;;;21.93;39.32;101534.50;5111388;28;20392;-48
2023/06/14 05:39:50;;;;;;;;;;;;;;;22.01;39.63;101539.69;5108657;28;20344;-49
2023/06/14 05:42:15;;;;;;;;;;;;;;;22.25;38.90;101534.25;5111480;28;19919;-48
2023/06/14 05:44:40;;;;;;;;;;;;;;;22.36;39.17;101540.25;5108659;28;20018;-46
2023/06/14 05:47:05;;;;;;;;;;;;;;;22.47;38.99;101541.03;5108443;28;20950;-47
2023/06/14 05:49:31;;;;;;;;;;;;;;;22.65;38.86;101544.34;5105595;28;19919;-47
2023/06/14 05:51:56;;;;;;;;;;;;;;;22.65;38.37;101547.81;5104435;28;19931;-49
2023/06/14 05:54:21;;;;;;;;;;;;;;;22.45;39.09;101553.28;5106693;28;19920;-45
2023/06/14 05:56:47;;;;;;;;;;;;;;;22.61;38.99;101550.47;5110587;28;20424;-48
2023/06/14 05:59:12;;;;;;;;;;;;;;;22.58;38.77;101550.53;5107294;28;20279;-48
2023/06/14 06:54:36;;;;;;;;;;;;;;;23.25;36.98;101599.59;5099607;27;19927;-59
2023/06/14 13:56:11;;;;;;;;;;;;;;;26.46;27.88;101633.03;5104330;27;19937;-48
2023/06/14 13:58:37;;;;;;;;;;;;;;;26.32;28.32;101629.84;5081943;28;19904;-45
2023/06/14 14:01:02;;;;;;;;;;;;;;;26.28;29.03;101633.47;5107515;27;19931;-45
2023/06/14 14:03:28;;;;;;;;;;;;;;;26.46;28.69;101635.69;5100205;28;20034;-45
2023/06/14 14:05:53;;;;;;;;;;;;;;;26.50;28.70;101632.03;5102672;28;20003;-44
2023/06/14 14:08:18;;;;;;;;;;;;;;;26.56;28.66;101616.06;5078998;28;19955;-47
2023/06/14 14:10:44;;;;;;;;;;;;;;;26.43;29.09;101622.56;5096964;28;19916;-46
2023/06/14 14:13:09;;;;;;;;;;;;;;;26.38;29.03;101624.41;5111894;27;19969;-45
2023/06/14 14:15:34;;;;;;;;;;;;;;;26.27;28.96;101622.06;5107929;27;20015;-47
2023/06/14 14:18:00;;;;;;;;;;;;;;;26.25;29.06;101628.25;5090378;27;19958;-47
2023/06/14 14:20:25;;;;;;;;;;;;;;;26.26;29.08;101624.72;5108327;27;19945;-45
2023/06/14 14:22:53;;;;;;;;;;;;;;;26.51;28.42;101633.75;5103875;27;20294;-47
2023/06/14 14:25:19;;;;;;;;;;;;;;;26.48;28.15;101627.72;5102815;28;19916;-46
2023/06/14 14:27:44;;;;;;;;;;;;;;;26.34;28.50;101633.31;5086453;28;20286;-50
2023/06/14 14:30:09;;;;;;;;;;;;;;;26.29;28.66;101624.66;5116878;27;19924;-48
2023/06/14 14:32:35;;;;;;;;;;;;;;;26.27;28.18;101619.44;5111532;28;19923;-46
2023/06/14 14:35:00;;;;;;;;;;;;;;;26.37;28.06;101630.59;5111055;27;19951;-47
2023/06/14 14:37:25;;;;;;;;;;;;;;;26.39;27.20;101624.41;5096400;28;19935;-46
2023/06/14 14:39:51;;;;;;;;;;;;;;;26.39;27.90;101620.88;5096657;28;20228;-47
2023/06/14 14:42:16;;;;;;;;;;;;;;;26.50;27.47;101634.69;5110689;27;19979;-48
2023/06/14 14:44:42;;;;;;;;;;;;;;;26.36;27.36;101626.22;5101854;27;20278;-48
2023/06/14 14:47:07;;;;;;;;;;;;;;;26.25;27.99;101617.72;5109015;27;19916;-45
2023/06/14 14:49:32;;;;;;;;;;;;;;;26.31;27.75;101605.25;5107494;27;19923;-48
2023/06/14 14:51:57;;;;;;;;;;;;;;;26.50;27.97;101618.00;5096465;28;19916;-45
2023/06/14 14:54:24;;;;;;;;;;;;;;;26.64;27.59;101627.28;5105300;28;19998;-45
2023/06/14 14:56:50;;;;;;;;;;;;;;;26.52;27.34;101622.34;5092376;28;19927;-47
2023/06/14 14:59:15;;;;;;;;;;;;;;;26.44;26.65;101635.69;5104055;28;19954;-45
2023/06/14 15:01:40;;;;;;;;;;;;;;;26.33;26.96;101623.66;5084917;28;20385;-49
2023/06/14 15:04:06;;;;;;;;;;;;;;;26.28;26.99;101628.19;5107036;27;19919;-44
2023/06/14 15:06:32;;;;;;;;;;;;;;;26.23;27.44;101625.69;5121015;27;19916;-48
2023/06/14 15:08:57;;;;;;;;;;;;;;;26.29;27.88;101624.66;5105491;27;20329;-45
2023/06/14 15:11:22;;;;;;;;;;;;;;;26.37;28.00;101623.53;5108266;27;19965;-49
2023/06/14 15:13:48;;;;;;;;;;;;;;;26.57;27.94;101628.31;5091666;27;19923;-47
2023/06/14 15:16:14;;;;;;;;;;;;;;;26.57;27.34;101628.31;5097554;28;19916;-49
2023/06/14 15:18:39;;;;;;;;;;;;;;;26.49;27.01;101632.94;5101110;28;19958;-45
2023/06/14 15:21:04;;;;;;;;;;;;;;;26.15;27.51;101622.38;5101594;27;19916;-45
2023/06/14 15:23:30;;;;;;;;;;;;;;;26.00;28.00;101625.38;5107675;27;19949;-48
2023/06/14 15:25:55;;;;;;;;;;;;;;;25.94;28.31;101627.25;5100307;27;20201;-48
2023/06/14 15:28:21;;;;;;;;;;;;;;;25.81;28.54;101622.31;5097970;28;20297;-47
2023/06/14 15:30:46;;;;;;;;;;;;;;;25.86;28.46;101630.97;5095432;28;19916;-48
2023/06/14 15:33:12;;;;;;;;;;;;;;;26.08;28.15;101633.94;5081008;28;19920;-48
2023/06/14 15:35:37;;;;;;;;;;;;;;;26.13;28.24;101635.56;5096586;28;20338;-48
2023/06/14 15:38:02;;;;;;;;;;;;;;;25.86;28.52;101634.47;5102359;28;19919;-45
2023/06/14 15:40:29;;;;;;;;;;;;;;;25.83;28.53;101626.63;5106228;28;19987;-46
2023/06/14 15:42:54;;;;;;;;;;;;;;;25.73;28.95;101634.75;5105754;27;19915;-49
2023/06/14 15:45:19;;;;;;;;;;;;;;;25.74;28.72;101631.25;5095951;27;19958;-48
2023/06/14 15:47:45;;;;;;;;;;;;;;;25.83;28.54;101628.38;5100062;28;19928;-49
2023/06/14 15:50:10;;;;;;;;;;;;;;;25.96;28.59;101624.56;5108863;27;20023;-45
2023/06/14 15:52:35;;;;;;;;;;;;;;;25.94;28.65;101629.88;5115063;28;19968;-45
2023/06/14 15:55:01;;;;;;;;;;;;;;;25.71;28.80;101631.28;5079287;28;19934;-45
2023/06/14 15:57:27;;;;;;;;;;;;;;;25.66;29.01;101627.00;5111231;28;20006;-49
2023/06/14 15:59:52;;;;;;;;;;;;;;;25.61;29.27;101620.97;5109563;28;19959;-47
2023/06/14 16:02:17;;;;;;;;;;;;;;;25.66;29.24;101626.09;5084165;28;20400;-47
2023/06/14 16:04:42;;;;;;;;;;;;;;;25.83;28.24;101615.22;5112308;28;20020;-45
2023/06/14 16:07:08;;;;;;;;;;;;;;;25.81;28.75;101619.66;5110468;28;19900;-49
2023/06/14 16:09:33;;;;;;;;;;;;;;;25.89;28.86;101617.72;5110509;28;19927;-46
2023/06/14 16:11:58;;;;;;;;;;;;;;;25.91;28.67;101613.28;5110808;28;19923;-46
2023/06/14 16:14:24;;;;;;;;;;;;;;;25.92;28.73;101620.28;5110145;28;19927;-48
2023/06/14 16:16:49;;;;;;;;;;;;;;;25.89;28.86;101615.06;5109763;28;20114;-45
2023/06/14 16:19:15;;;;;;;;;;;;;;;25.61;29.35;101620.09;5109833;28;20378;-45
2023/06/14 16:21:40;;;;;;;;;;;;;;;25.51;29.57;101606.25;5117328;28;19922;-45
2023/06/14 16:24:06;;;;;;;;;;;;;;;25.66;29.08;101610.28;5110871;28;20010;-47
2023/06/14 16:26:31;;;;;;;;;;;;;;;25.78;29.11;101612.69;5117361;28;20377;-46
2023/06/14 16:28:56;;;;;;;;;;;;;;;25.88;29.12;101608.06;5112815;28;20451;-48
2023/06/14 16:31:22;;;;;;;;;;;;;;;25.86;29.12;101612.53;5114575;27;20006;-48
2023/06/14 16:33:47;;;;;;;;;;;;;;;25.75;28.96;101611.91;5095427;28;19920;-49
2023/06/14 16:36:12;;;;;;;;;;;;;;;25.70;29.39;101614.59;5114300;28;19912;-46
2023/06/14 16:38:38;;;;;;;;;;;;;;;25.56;29.76;101608.78;5113747;28;19970;-48
2023/06/14 16:41:04;;;;;;;;;;;;;;;25.61;29.74;101610.44;5114001;28;20565;-50
2023/06/14 16:43:29;;;;;;;;;;;;;;;25.51;29.80;101613.28;5114339;27;19915;-52
2023/06/14 16:45:55;;;;;;;;;;;;;;;25.35;30.32;101613.59;5095497;28;20018;-46
2023/06/14 16:48:20;;;;;;;;;;;;;;;25.47;30.24;101627.41;5114489;28;19916;-46
2023/06/14 16:50:46;;;;;;;;;;;;;;;25.46;30.16;101618.66;5112826;28;20309;-44
2023/06/14 16:53:11;;;;;;;;;;;;;;;25.62;29.79;101624.47;5113876;28;19973;-48
2023/06/14 16:55:36;;;;;;;;;;;;;;;25.49;29.69;101615.97;5116842;27;19922;-44
2023/06/14 16:58:01;;;;;;;;;;;;;;;25.44;30.16;101617.81;5113406;27;19970;-47
2023/06/14 17:00:27;;;;;;;;;;;;;;;25.51;29.63;101634.34;5109477;28;19920;-46
2023/06/14 17:02:53;;;;;;;;;;;;;;;25.35;30.08;101628.53;5106356;28;19921;-44
2023/06/14 17:05:18;;;;;;;;;;;;;;;25.32;30.09;101639.16;5098420;28;19919;-47
2023/06/14 17:07:44;;;;;;;;;;;;;;;25.30;30.05;101627.75;5100068;28;19915;-45
2023/06/14 17:10:09;;;;;;;;;;;;;;;25.41;29.96;101633.69;5100972;28;19963;-47
2023/06/14 17:12:35;;;;;;;;;;;;;;;25.41;30.14;101633.69;5104285;28;19979;-46
2023/06/14 17:15:02;;;;;;;;;;;;;;;25.35;30.09;101636.44;5104163;28;19969;-47
2023/06/14 17:17:27;;;;;;;;;;;;;;;25.30;30.44;101640.94;5101757;28;19983;-45
2023/06/14 17:19:52;;;;;;;;;;;;;;;25.42;29.72;101638.03;5095443;28;19963;-46
2023/06/14 17:22:17;;;;;;;;;;;;;;;25.22;29.92;101648.13;5104784;28;20006;-45
2023/06/14 17:24:43;;;;;;;;;;;;;;;25.21;29.76;101646.41;5105217;28;20038;-48
2023/06/14 17:27:08;;;;;;;;;;;;;;;25.18;30.22;101646.44;5112553;28;19924;-46
2023/06/14 17:29:33;;;;;;;;;;;;;;;25.06;30.32;101648.44;5104601;28;20487;-45
2023/06/14 17:31:59;;;;;;;;;;;;;;;25.08;30.51;101651.91;5102278;28;19920;-46
2023/06/14 17:34:24;;;;;;;;;;;;;;;24.99;30.72;101649.41;5120277;27;19923;-45
2023/06/14 17:36:50;;;;;;;;;;;;;;;24.92;30.74;101650.41;5099192;28;20042;-46
2023/06/14 17:39:17;;;;;;;;;;;;;;;24.92;30.93;101650.41;5103639;28;19920;-45
2023/06/14 17:41:42;;;;;;;;;;;;;;;24.95;30.94;101650.38;5104896;28;19923;-46
2023/06/14 17:44:09;;;;;;;;;;;;;;;24.94;30.61;101658.31;5093592;28;19920;-47
2023/06/14 17:46:34;;;;;;;;;;;;;;;24.77;30.73;101661.25;5105397;28;19966;-50
2023/06/14 17:48:59;;;;;;;;;;;;;;;24.65;31.31;101650.94;5099969;27;19939;-46
2023/06/14 17:51:25;;;;;;;;;;;;;;;24.56;31.44;101655.44;5109964;27;19916;-45
2023/06/14 17:53:51;;;;;;;;;;;;;;;24.59;31.42;101660.69;5092274;28;19921;-47
2023/06/14 17:56:17;;;;;;;;;;;;;;;24.51;31.72;101657.31;5105130;28;20006;-47
2023/06/14 17:58:43;;;;;;;;;;;;;;;24.46;31.87;101664.41;5108475;28;19921;-47
2023/06/14 18:01:08;;;;;;;;;;;;;;;24.38;31.94;101663.66;5111215;28;20340;-46
2023/06/14 18:03:33;;;;;;;;;;;;;;;24.32;31.79;101663.72;5108407;28;20027;-45
2023/06/14 18:06:00;;;;;;;;;;;;;;;24.24;31.98;101661.22;5105990;28;19967;-46
2023/06/14 18:08:25;;;;;;;;;;;;;;;24.23;32.38;101675.25;5109099;27;20024;-44
2023/06/14 18:10:50;;;;;;;;;;;;;;;24.20;32.25;101671.81;5103860;27;20381;-47
2023/06/14 18:13:15;;;;;;;;;;;;;;;24.17;32.01;101671.88;5095047;28;19935;-45
2023/06/14 18:15:41;;;;;;;;;;;;;;;24.12;31.73;101668.44;5106778;28;20307;-47
2023/06/14 18:18:06;;;;;;;;;;;;;;;24.05;31.35;101676.41;5099590;28;20298;-45
2023/06/14 18:20:32;;;;;;;;;;;;;;;23.97;31.67;101675.66;5097873;28;19923;-48
2023/06/14 18:22:57;;;;;;;;;;;;;;;23.99;31.78;101675.63;5103444;28;19912;-47
2023/06/14 18:25:23;;;;;;;;;;;;;;;23.98;32.13;101673.91;5098081;28;20275;-45
2023/06/14 18:27:49;;;;;;;;;;;;;;;24.03;31.82;101678.19;5109537;28;19950;-45
2023/06/14 18:30:14;;;;;;;;;;;;;;;23.97;31.92;101683.53;5092819;28;19911;-46
2023/06/14 18:32:40;;;;;;;;;;;;;;;23.92;32.12;101684.50;5105412;28;19965;-45
2023/06/14 18:35:06;;;;;;;;;;;;;;;23.88;32.49;101682.78;5115776;27;19930;-48
2023/06/14 18:37:32;;;;;;;;;;;;;;;23.92;32.44;101681.88;5103761;28;19978;-47
2023/06/14 18:39:57;;;;;;;;;;;;;;;23.85;32.47;101677.59;5099988;28;19947;-46
2023/06/14 18:42:23;;;;;;;;;;;;;;;23.78;32.32;101682.03;5080481;28;19916;-47
2023/06/14 18:44:48;;;;;;;;;;;;;;;23.71;32.50;101685.66;5105841;28;19999;-44
2023/06/14 18:47:13;;;;;;;;;;;;;;;23.67;32.64;101679.59;5103730;28;20002;-46
2023/06/14 18:49:39;;;;;;;;;;;;;;;23.66;32.86;101679.56;5107989;27;20275;-45
2023/06/14 18:52:05;;;;;;;;;;;;;;;23.63;32.96;101688.38;5079224;28;19998;-45
2023/06/14 18:54:30;;;;;;;;;;;;;;;23.60;33.37;101687.50;5102470;27;19931;-45
2023/06/14 18:56:55;;;;;;;;;;;;;;;23.61;33.32;101684.88;5104417;27;20691;-45
2023/06/14 18:59:20;;;;;;;;;;;;;;;23.55;33.90;101683.19;5077986;28;20367;-44
2023/06/14 19:01:46;;;;;;;;;;;;;;;23.49;33.30;101691.16;5091761;28;19963;-46
2023/06/14 19:04:11;;;;;;;;;;;;;;;23.42;34.14;101694.75;5101069;28;19919;-46
2023/06/14 19:06:37;;;;;;;;;;;;;;;23.34;33.46;101699.19;5091960;28;19943;-46
2023/06/14 19:09:03;;;;;;;;;;;;;;;23.29;34.28;101701.88;5069311;28;20433;-45
2023/06/14 19:11:28;;;;;;;;;;;;;;;23.24;34.17;101702.84;5092765;28;19916;-45
2023/06/14 19:13:53;;;;;;;;;;;;;;;23.16;33.82;101702.88;5093179;28;20294;-47
2023/06/14 19:16:18;;;;;;;;;;;;;;;23.12;34.50;101701.22;5081357;28;20003;-45
2023/06/14 19:18:44;;;;;;;;;;;;;;;23.08;34.85;101703.88;5087505;28;19923;-46
2023/06/14 19:21:09;;;;;;;;;;;;;;;23.01;34.66;101705.69;5083657;28;20319;-44
2023/06/14 19:23:35;;;;;;;;;;;;;;;22.93;35.17;101702.25;5087877;28;19923;-46
2023/06/14 19:26:00;;;;;;;;;;;;;;;22.86;35.00;101704.03;5088839;28;19927;-45
2023/06/14 19:28:25;;;;;;;;;;;;;;;22.80;35.15;101698.84;5091073;28;19927;-48
2023/06/14 19:30:51;;;;;;;;;;;;;;;22.75;35.28;101713.75;5091098;28;20258;-44
2023/06/14 19:33:16;;;;;;;;;;;;;;;22.71;35.07;101712.91;5089649;28;20409;-48
2023/06/14 19:35:42;;;;;;;;;;;;;;;22.66;36.10;101711.22;5092243;28;19942;-47
2023/06/14 19:38:07;;;;;;;;;;;;;;;22.59;36.01;101715.66;5078795;28;19923;-47
2023/06/14 19:40:32;;;;;;;;;;;;;;;22.54;36.62;101721.81;5100866;28;19967;-49
2023/06/14 19:42:58;;;;;;;;;;;;;;;22.46;35.68;101717.50;5091813;28;20417;-46
2023/06/14 19:45:23;;;;;;;;;;;;;;;22.38;36.26;101719.28;5086927;28;20408;-46
2023/06/14 19:47:49;;;;;;;;;;;;;;;22.35;36.37;101724.56;5094967;28;19916;-48
2023/06/14 19:50:14;;;;;;;;;;;;;;;22.25;37.39;101730.72;5089190;28;19955;-46
2023/06/14 19:52:39;;;;;;;;;;;;;;;22.19;36.50;101730.78;5094926;28;20488;-47
2023/06/14 19:55:05;;;;;;;;;;;;;;;22.13;37.29;101736.03;5089996;28;19929;-47
2023/06/14 19:57:30;;;;;;;;;;;;;;;22.09;35.91;101734.31;5109012;28;20302;-46
2023/06/14 19:59:55;;;;;;;;;;;;;;;22.02;37.09;101737.81;5112773;28;19928;-47
2023/06/14 20:02:21;;;;;;;;;;;;;;;21.99;36.49;101743.09;5122553;28;20018;-46
2023/06/14 20:04:46;;;;;;;;;;;;;;;21.91;36.96;101735.28;5119952;28;19916;-45
2023/06/14 20:07:12;;;;;;;;;;;;;;;21.86;37.33;101752.75;5110499;28;19927;-49
2023/06/14 20:09:38;;;;;;;;;;;;;;;21.79;37.49;101746.69;5114755;28;19919;-46
2023/06/14 20:12:04;;;;;;;;;;;;;;;21.75;37.60;101741.44;5115514;28;19952;-45
2023/06/14 20:14:29;;;;;;;;;;;;;;;21.69;37.67;101752.81;5097380;28;20030;-44
2023/06/14 20:16:54;;;;;;;;;;;;;;;21.63;38.63;101744.97;5115633;28;19991;-49
2023/06/14 20:19:20;;;;;;;;;;;;;;;21.59;38.22;101748.47;5117529;28;19934;-45